sensor_id;sensor_type;location;lat;lon;timestamp;temperature;humidity
9033;DHT22;4551;53.164;8.210;2023-02-08T00:00:26;-0.50;99.90
9033;DHT22;4551;53.164;8.210;2023-02-08T00:02:54;-0.60;99.90
9033;DHT22;4551;53.164;8.210;2023-02-08T00:05:23;-0.60;99.90
9033;DHT22;4551;53.164;8.210;2023-02-08T00:07:52;-0.60;99.90
9033;DHT22;4551;53.164;8.210;2023-02-08T00:10:20;-0.60;99.90
9033;DHT22;4551;53.164;8.210;2023-02-08T00:12:48;-0.60;99.90
9033;DHT22;4551;53.164;8.210;2023-02-08T00:15:17;-0.60;99.90
9033;DHT22;4551;53.164;8.210;2023-02-08T00:17:45;-0.70;99.90
9033;DHT22;4551;53.164;8.210;2023-02-08T00:20:13;-0.70;99.90
9033;DHT22;4551;53.164;8.210;2023-02-08T00:22:42;-0.70;99.90
9033;DHT22;4551;53.164;8.210;2023-02-08T00:25:11;-0.70;99.90
9033;DHT22;4551;53.164;8.210;2023-02-08T00:27:39;-0.70;99.90
9033;DHT22;4551;53.164;8.210;2023-02-08T00:30:07;-0.80;99.90
9033;DHT22;4551;53.164;8.210;2023-02-08T00:32:36;-0.80;99.90
9033;DHT22;4551;53.164;8.210;2023-02-08T00:35:04;-0.80;99.90
9033;DHT22;4551;53.164;8.210;2023-02-08T00:37:32;-0.80;99.90
9033;DHT22;4551;53.164;8.210;2023-02-08T00:40:00;-0.80;99.90
9033;DHT22;4551;53.164;8.210;2023-02-08T00:42:31;-0.80;99.90
9033;DHT22;4551;53.164;8.210;2023-02-08T00:44:59;-0.80;99.90
9033;DHT22;4551;53.164;8.210;2023-02-08T00:47:27;-0.80;99.90
9033;DHT22;4551;53.164;8.210;2023-02-08T00:49:55;-0.80;99.90
9033;DHT22;4551;53.164;8.210;2023-02-08T00:52:23;-0.90;99.90
9033;DHT22;4551;53.164;8.210;2023-02-08T00:54:52;-0.90;99.90
9033;DHT22;4551;53.164;8.210;2023-02-08T00:57:20;-0.90;99.90
9033;DHT22;4551;53.164;8.210;2023-02-08T00:59:50;-0.90;99.90
9033;DHT22;4551;53.164;8.210;2023-02-08T01:02:18;-1.00;99.90
9033;DHT22;4551;53.164;8.210;2023-02-08T01:04:46;-1.00;99.90
9033;DHT22;4551;53.164;8.210;2023-02-08T01:07:14;-0.90;99.90
9033;DHT22;4551;53.164;8.210;2023-02-08T01:09:42;-1.00;99.90
9033;DHT22;4551;53.164;8.210;2023-02-08T01:12:10;-1.00;99.90
9033;DHT22;4551;53.164;8.210;2023-02-08T01:14:38;-1.00;99.90
9033;DHT22;4551;53.164;8.210;2023-02-08T01:17:08;-1.00;99.90
9033;DHT22;4551;53.164;8.210;2023-02-08T01:19:36;-1.00;99.90
9033;DHT22;4551;53.164;8.210;2023-02-08T01:22:05;-1.10;99.90
9033;DHT22;4551;53.164;8.210;2023-02-08T01:24:33;-1.10;99.90
9033;DHT22;4551;53.164;8.210;2023-02-08T01:27:01;-1.10;99.90
9033;DHT22;4551;53.164;8.210;2023-02-08T01:29:29;-1.10;99.90
9033;DHT22;4551;53.164;8.210;2023-02-08T01:31:57;-1.10;99.90
9033;DHT22;4551;53.164;8.210;2023-02-08T01:34:27;-1.10;99.90
9033;DHT22;4551;53.164;8.210;2023-02-08T01:36:55;-1.30;99.90
9033;DHT22;4551;53.164;8.210;2023-02-08T01:39:23;-1.10;99.90
9033;DHT22;4551;53.164;8.210;2023-02-08T01:41:51;-1.20;99.90
9033;DHT22;4551;53.164;8.210;2023-02-08T01:47:06;-1.30;99.90
9033;DHT22;4551;53.164;8.210;2023-02-08T01:49:35;-1.30;99.90
9033;DHT22;4551;53.164;8.210;2023-02-08T01:52:04;-1.30;99.90
9033;DHT22;4551;53.164;8.210;2023-02-08T01:54:34;-1.40;99.90
9033;DHT22;4551;53.164;8.210;2023-02-08T01:57:03;-1.40;99.90
9033;DHT22;4551;53.164;8.210;2023-02-08T01:59:32;-1.40;99.90
9033;DHT22;4551;53.164;8.210;2023-02-08T02:02:00;-1.40;99.90
9033;DHT22;4551;53.164;8.210;2023-02-08T02:04:29;-1.40;99.90
9033;DHT22;4551;53.164;8.210;2023-02-08T02:06:59;-1.40;99.90
9033;DHT22;4551;53.164;8.210;2023-02-08T02:09:29;-1.40;99.90
9033;DHT22;4551;53.164;8.210;2023-02-08T02:11:58;-1.50;99.90
9033;DHT22;4551;53.164;8.210;2023-02-08T02:14:27;-1.50;99.90
9033;DHT22;4551;53.164;8.210;2023-02-08T02:16:58;-1.50;99.90
9033;DHT22;4551;53.164;8.210;2023-02-08T02:19:29;-1.50;99.90
9033;DHT22;4551;53.164;8.210;2023-02-08T02:22:06;-1.50;99.90
9033;DHT22;4551;53.164;8.210;2023-02-08T02:24:41;-1.60;99.90
9033;DHT22;4551;53.164;8.210;2023-02-08T02:27:20;-1.50;99.90
9033;DHT22;4551;53.164;8.210;2023-02-08T02:30:04;-1.60;99.90
9033;DHT22;4551;53.164;8.210;2023-02-08T02:32:41;-1.60;99.90
9033;DHT22;4551;53.164;8.210;2023-02-08T02:35:14;-1.60;99.90
9033;DHT22;4551;53.164;8.210;2023-02-08T02:37:48;-1.60;99.90
9033;DHT22;4551;53.164;8.210;2023-02-08T02:40:20;-1.50;99.90
9033;DHT22;4551;53.164;8.210;2023-02-08T02:42:51;-1.60;99.90
9033;DHT22;4551;53.164;8.210;2023-02-08T02:45:44;-1.60;99.90
9033;DHT22;4551;53.164;8.210;2023-02-08T02:48:16;-1.60;99.90
9033;DHT22;4551;53.164;8.210;2023-02-08T02:50:46;-1.70;99.90
9033;DHT22;4551;53.164;8.210;2023-02-08T02:53:16;-1.70;99.90
9033;DHT22;4551;53.164;8.210;2023-02-08T02:55:47;-1.70;99.90
9033;DHT22;4551;53.164;8.210;2023-02-08T02:58:17;-1.70;99.90
9033;DHT22;4551;53.164;8.210;2023-02-08T03:00:50;-1.70;99.90
9033;DHT22;4551;53.164;8.210;2023-02-08T03:03:21;-1.80;99.90
9033;DHT22;4551;53.164;8.210;2023-02-08T03:05:50;-1.80;99.90
9033;DHT22;4551;53.164;8.210;2023-02-08T03:08:23;-1.80;99.90
9033;DHT22;4551;53.164;8.210;2023-02-08T03:11:11;-1.80;99.90
9033;DHT22;4551;53.164;8.210;2023-02-08T03:13:46;-1.80;99.90
9033;DHT22;4551;53.164;8.210;2023-02-08T03:16:18;-1.90;99.90
9033;DHT22;4551;53.164;8.210;2023-02-08T03:18:54;-1.80;99.90
9033;DHT22;4551;53.164;8.210;2023-02-08T03:21:25;-1.80;99.90
9033;DHT22;4551;53.164;8.210;2023-02-08T03:23:58;-1.90;99.90
9033;DHT22;4551;53.164;8.210;2023-02-08T03:26:30;-1.90;99.90
9033;DHT22;4551;53.164;8.210;2023-02-08T03:29:00;-1.90;99.90
9033;DHT22;4551;53.164;8.210;2023-02-08T03:31:29;-1.90;99.90
9033;DHT22;4551;53.164;8.210;2023-02-08T03:34:01;-1.90;99.90
9033;DHT22;4551;53.164;8.210;2023-02-08T03:36:33;-1.90;99.90
9033;DHT22;4551;53.164;8.210;2023-02-08T03:39:04;-1.90;99.90
9033;DHT22;4551;53.164;8.210;2023-02-08T03:41:35;-1.90;99.90
9033;DHT22;4551;53.164;8.210;2023-02-08T03:44:04;-2.00;99.90
9033;DHT22;4551;53.164;8.210;2023-02-08T03:46:36;-1.90;99.90
9033;DHT22;4551;53.164;8.210;2023-02-08T03:49:07;-2.00;99.90
9033;DHT22;4551;53.164;8.210;2023-02-08T03:51:35;-2.00;99.90
9033;DHT22;4551;53.164;8.210;2023-02-08T03:54:06;-2.00;99.90
9033;DHT22;4551;53.164;8.210;2023-02-08T03:56:36;-2.00;99.90
9033;DHT22;4551;53.164;8.210;2023-02-08T03:59:06;-2.00;99.90
9033;DHT22;4551;53.164;8.210;2023-02-08T04:01:37;-2.00;99.90
9033;DHT22;4551;53.164;8.210;2023-02-08T04:04:09;-2.00;99.90
9033;DHT22;4551;53.164;8.210;2023-02-08T04:06:38;-2.00;99.90
9033;DHT22;4551;53.164;8.210;2023-02-08T04:09:06;-2.00;99.90
9033;DHT22;4551;53.164;8.210;2023-02-08T04:11:34;-2.00;99.90
9033;DHT22;4551;53.164;8.210;2023-02-08T04:14:02;-2.10;99.90
9033;DHT22;4551;53.164;8.210;2023-02-08T04:16:30;-2.10;99.90
9033;DHT22;4551;53.164;8.210;2023-02-08T04:18:58;-2.10;99.90
9033;DHT22;4551;53.164;8.210;2023-02-08T04:21:27;-2.10;99.90
9033;DHT22;4551;53.164;8.210;2023-02-08T04:23:55;-2.10;99.90
9033;DHT22;4551;53.164;8.210;2023-02-08T04:26:23;-2.10;99.90
9033;DHT22;4551;53.164;8.210;2023-02-08T04:28:52;-2.10;99.90
9033;DHT22;4551;53.164;8.210;2023-02-08T04:31:20;-2.10;99.90
9033;DHT22;4551;53.164;8.210;2023-02-08T04:33:48;-2.10;99.90
9033;DHT22;4551;53.164;8.210;2023-02-08T04:36:16;-2.10;99.90
9033;DHT22;4551;53.164;8.210;2023-02-08T04:38:45;-2.10;99.90
9033;DHT22;4551;53.164;8.210;2023-02-08T04:41:13;-2.10;99.90
9033;DHT22;4551;53.164;8.210;2023-02-08T04:43:41;-2.20;99.90
9033;DHT22;4551;53.164;8.210;2023-02-08T04:46:09;-2.10;99.90
9033;DHT22;4551;53.164;8.210;2023-02-08T04:48:38;-2.00;99.90
9033;DHT22;4551;53.164;8.210;2023-02-08T04:51:06;-2.10;99.90
9033;DHT22;4551;53.164;8.210;2023-02-08T04:53:34;-2.10;99.90
9033;DHT22;4551;53.164;8.210;2023-02-08T04:56:03;-2.10;99.90
9033;DHT22;4551;53.164;8.210;2023-02-08T04:58:32;-2.00;99.90
9033;DHT22;4551;53.164;8.210;2023-02-08T05:01:00;-2.10;99.90
9033;DHT22;4551;53.164;8.210;2023-02-08T05:03:28;-2.00;99.90
9033;DHT22;4551;53.164;8.210;2023-02-08T05:05:56;-2.00;99.90
9033;DHT22;4551;53.164;8.210;2023-02-08T05:08:24;-2.00;99.90
9033;DHT22;4551;53.164;8.210;2023-02-08T05:10:53;-2.00;99.90
9033;DHT22;4551;53.164;8.210;2023-02-08T05:13:22;-2.00;99.90
9033;DHT22;4551;53.164;8.210;2023-02-08T05:15:50;-2.10;99.90
9033;DHT22;4551;53.164;8.210;2023-02-08T05:18:18;-2.10;99.90
9033;DHT22;4551;53.164;8.210;2023-02-08T05:20:52;-1.50;99.90
9033;DHT22;4551;53.164;8.210;2023-02-08T05:23:22;-2.00;99.90
9033;DHT22;4551;53.164;8.210;2023-02-08T05:25:50;-2.00;99.90
9033;DHT22;4551;53.164;8.210;2023-02-08T05:28:18;-2.00;99.90
9033;DHT22;4551;53.164;8.210;2023-02-08T05:30:48;-2.10;99.90
9033;DHT22;4551;53.164;8.210;2023-02-08T05:33:16;-2.00;99.90
9033;DHT22;4551;53.164;8.210;2023-02-08T05:35:45;-2.00;99.90
9033;DHT22;4551;53.164;8.210;2023-02-08T05:38:13;-2.00;99.90
9033;DHT22;4551;53.164;8.210;2023-02-08T05:40:41;-2.10;99.90
9033;DHT22;4551;53.164;8.210;2023-02-08T05:43:09;-2.00;99.90
9033;DHT22;4551;53.164;8.210;2023-02-08T05:45:37;-2.10;99.90
9033;DHT22;4551;53.164;8.210;2023-02-08T05:48:07;-2.00;99.90
9033;DHT22;4551;53.164;8.210;2023-02-08T05:50:35;-2.10;99.90
9033;DHT22;4551;53.164;8.210;2023-02-08T05:53:03;-2.10;99.90
9033;DHT22;4551;53.164;8.210;2023-02-08T05:55:31;-2.00;99.90
9033;DHT22;4551;53.164;8.210;2023-02-08T05:57:59;-2.00;99.90
9033;DHT22;4551;53.164;8.210;2023-02-08T06:00:27;-2.00;99.90
9033;DHT22;4551;53.164;8.210;2023-02-08T06:02:56;-2.10;99.90
9033;DHT22;4551;53.164;8.210;2023-02-08T06:05:25;-2.00;99.90
9033;DHT22;4551;53.164;8.210;2023-02-08T06:07:53;-2.10;99.90
9033;DHT22;4551;53.164;8.210;2023-02-08T06:10:21;-2.10;99.90
9033;DHT22;4551;53.164;8.210;2023-02-08T06:12:49;-2.10;99.90
9033;DHT22;4551;53.164;8.210;2023-02-08T06:15:17;-2.20;99.90
9033;DHT22;4551;53.164;8.210;2023-02-08T06:17:46;-2.20;99.90
9033;DHT22;4551;53.164;8.210;2023-02-08T06:20:14;-2.20;99.90
9033;DHT22;4551;53.164;8.210;2023-02-08T06:22:43;-2.30;99.90
9033;DHT22;4551;53.164;8.210;2023-02-08T06:25:11;-2.30;99.90
9033;DHT22;4551;53.164;8.210;2023-02-08T06:27:39;-2.30;99.90
9033;DHT22;4551;53.164;8.210;2023-02-08T06:30:07;-2.30;99.90
9033;DHT22;4551;53.164;8.210;2023-02-08T06:32:36;-2.30;99.90
9033;DHT22;4551;53.164;8.210;2023-02-08T06:35:04;-2.40;99.90
9033;DHT22;4551;53.164;8.210;2023-02-08T06:37:33;-2.40;99.90
9033;DHT22;4551;53.164;8.210;2023-02-08T06:40:02;-2.40;99.90
9033;DHT22;4551;53.164;8.210;2023-02-08T06:42:30;-2.40;99.90
9033;DHT22;4551;53.164;8.210;2023-02-08T06:44:59;-2.40;99.90
9033;DHT22;4551;53.164;8.210;2023-02-08T06:47:27;-2.40;99.90
9033;DHT22;4551;53.164;8.210;2023-02-08T06:49:55;-2.40;99.90
9033;DHT22;4551;53.164;8.210;2023-02-08T06:52:23;-2.40;99.90
9033;DHT22;4551;53.164;8.210;2023-02-08T06:54:51;-2.40;99.90
9033;DHT22;4551;53.164;8.210;2023-02-08T06:57:21;-2.50;99.90
9033;DHT22;4551;53.164;8.210;2023-02-08T06:59:49;-2.50;99.90
9033;DHT22;4551;53.164;8.210;2023-02-08T07:02:18;-2.50;99.90
9033;DHT22;4551;53.164;8.210;2023-02-08T07:04:46;-2.40;99.90
9033;DHT22;4551;53.164;8.210;2023-02-08T07:07:15;-2.40;99.90
9033;DHT22;4551;53.164;8.210;2023-02-08T07:09:43;-2.40;99.90
9033;DHT22;4551;53.164;8.210;2023-02-08T07:12:11;-2.40;99.90
9033;DHT22;4551;53.164;8.210;2023-02-08T07:14:41;-2.40;99.90
9033;DHT22;4551;53.164;8.210;2023-02-08T07:17:10;-2.40;99.90
9033;DHT22;4551;53.164;8.210;2023-02-08T07:19:38;-2.40;99.90
9033;DHT22;4551;53.164;8.210;2023-02-08T07:22:06;-2.40;99.90
9033;DHT22;4551;53.164;8.210;2023-02-08T07:24:35;-2.40;99.90
9033;DHT22;4551;53.164;8.210;2023-02-08T07:27:03;-2.40;99.90
9033;DHT22;4551;53.164;8.210;2023-02-08T07:29:32;-2.50;99.90
9033;DHT22;4551;53.164;8.210;2023-02-08T07:32:02;-2.50;99.90
9033;DHT22;4551;53.164;8.210;2023-02-08T07:34:31;-2.40;99.90
9033;DHT22;4551;53.164;8.210;2023-02-08T07:37:00;-2.40;99.90
9033;DHT22;4551;53.164;8.210;2023-02-08T07:39:28;-2.40;99.90
9033;DHT22;4551;53.164;8.210;2023-02-08T07:41:57;-2.40;99.90
9033;DHT22;4551;53.164;8.210;2023-02-08T07:44:25;-2.40;99.90
9033;DHT22;4551;53.164;8.210;2023-02-08T07:46:53;-2.40;99.90
9033;DHT22;4551;53.164;8.210;2023-02-08T07:49:23;-2.30;99.90
9033;DHT22;4551;53.164;8.210;2023-02-08T07:51:51;-2.30;99.90
9033;DHT22;4551;53.164;8.210;2023-02-08T07:54:19;-2.30;99.90
9033;DHT22;4551;53.164;8.210;2023-02-08T07:56:47;-2.30;99.90
9033;DHT22;4551;53.164;8.210;2023-02-08T07:59:15;-2.20;99.90
9033;DHT22;4551;53.164;8.210;2023-02-08T08:01:43;-2.20;99.90
9033;DHT22;4551;53.164;8.210;2023-02-08T08:04:11;-2.20;99.90
9033;DHT22;4551;53.164;8.210;2023-02-08T08:06:41;-2.10;99.90
9033;DHT22;4551;53.164;8.210;2023-02-08T08:09:09;-2.10;99.90
9033;DHT22;4551;53.164;8.210;2023-02-08T08:11:37;-2.10;99.90
9033;DHT22;4551;53.164;8.210;2023-02-08T08:14:05;-2.00;99.90
9033;DHT22;4551;53.164;8.210;2023-02-08T08:16:33;-2.00;99.90
9033;DHT22;4551;53.164;8.210;2023-02-08T08:19:01;-2.00;99.90
9033;DHT22;4551;53.164;8.210;2023-02-08T08:21:29;-1.90;99.90
9033;DHT22;4551;53.164;8.210;2023-02-08T08:23:59;-1.90;99.90
9033;DHT22;4551;53.164;8.210;2023-02-08T08:26:27;-1.90;99.90
9033;DHT22;4551;53.164;8.210;2023-02-08T08:28:55;-1.80;99.90
9033;DHT22;4551;53.164;8.210;2023-02-08T08:31:23;-1.80;99.90
9033;DHT22;4551;53.164;8.210;2023-02-08T08:33:52;-1.80;99.90
9033;DHT22;4551;53.164;8.210;2023-02-08T08:36:20;-1.70;99.90
9033;DHT22;4551;53.164;8.210;2023-02-08T08:38:48;-1.70;99.90
9033;DHT22;4551;53.164;8.210;2023-02-08T08:41:17;-1.60;99.90
9033;DHT22;4551;53.164;8.210;2023-02-08T08:43:48;-1.60;99.90
9033;DHT22;4551;53.164;8.210;2023-02-08T08:46:16;-1.60;99.90
9033;DHT22;4551;53.164;8.210;2023-02-08T08:48:44;-1.50;99.90
9033;DHT22;4551;53.164;8.210;2023-02-08T08:51:12;-1.50;99.90
9033;DHT22;4551;53.164;8.210;2023-02-08T08:53:41;-1.50;99.90
9033;DHT22;4551;53.164;8.210;2023-02-08T08:56:09;-1.40;99.90
9033;DHT22;4551;53.164;8.210;2023-02-08T08:58:38;-1.40;99.90
9033;DHT22;4551;53.164;8.210;2023-02-08T09:01:06;-1.40;99.90
9033;DHT22;4551;53.164;8.210;2023-02-08T09:03:34;-1.30;99.90
9033;DHT22;4551;53.164;8.210;2023-02-08T09:06:03;-1.30;99.90
9033;DHT22;4551;53.164;8.210;2023-02-08T09:08:31;-1.30;99.90
9033;DHT22;4551;53.164;8.210;2023-02-08T09:11:03;-1.20;99.90
9033;DHT22;4551;53.164;8.210;2023-02-08T09:13:33;-1.20;99.90
9033;DHT22;4551;53.164;8.210;2023-02-08T09:16:06;-1.10;99.90
9033;DHT22;4551;53.164;8.210;2023-02-08T09:18:35;-1.10;99.90
9033;DHT22;4551;53.164;8.210;2023-02-08T09:21:06;-1.00;99.90
9033;DHT22;4551;53.164;8.210;2023-02-08T09:23:34;-1.00;99.90
9033;DHT22;4551;53.164;8.210;2023-02-08T09:26:03;-1.00;99.90
9033;DHT22;4551;53.164;8.210;2023-02-08T09:28:31;-0.90;99.90
9033;DHT22;4551;53.164;8.210;2023-02-08T09:30:59;-0.80;99.90
9033;DHT22;4551;53.164;8.210;2023-02-08T09:33:35;-0.80;99.90
9033;DHT22;4551;53.164;8.210;2023-02-08T09:36:03;-0.70;99.90
9033;DHT22;4551;53.164;8.210;2023-02-08T09:38:33;-0.70;99.90
9033;DHT22;4551;53.164;8.210;2023-02-08T09:41:03;-0.60;99.90
9033;DHT22;4551;53.164;8.210;2023-02-08T09:43:34;-0.60;99.90
9033;DHT22;4551;53.164;8.210;2023-02-08T09:46:09;-0.60;99.90
9033;DHT22;4551;53.164;8.210;2023-02-08T09:48:39;-0.50;99.90
9033;DHT22;4551;53.164;8.210;2023-02-08T09:51:08;-0.50;99.90
9033;DHT22;4551;53.164;8.210;2023-02-08T09:53:38;-0.40;99.90
9033;DHT22;4551;53.164;8.210;2023-02-08T09:56:10;-0.30;99.90
9033;DHT22;4551;53.164;8.210;2023-02-08T09:58:40;-0.30;99.90
9033;DHT22;4551;53.164;8.210;2023-02-08T10:01:11;-0.20;99.90
9033;DHT22;4551;53.164;8.210;2023-02-08T10:03:45;-0.20;99.90
9033;DHT22;4551;53.164;8.210;2023-02-08T10:06:14;-0.10;99.90
9033;DHT22;4551;53.164;8.210;2023-02-08T10:08:43;-0.10;99.90
9033;DHT22;4551;53.164;8.210;2023-02-08T10:11:18;0.00;99.90
9033;DHT22;4551;53.164;8.210;2023-02-08T10:13:55;0.00;99.90
9033;DHT22;4551;53.164;8.210;2023-02-08T10:16:33;0.10;99.90
9033;DHT22;4551;53.164;8.210;2023-02-08T10:19:05;0.20;99.90
9033;DHT22;4551;53.164;8.210;2023-02-08T10:21:40;0.20;99.90
9033;DHT22;4551;53.164;8.210;2023-02-08T10:24:14;0.30;99.90
9033;DHT22;4551;53.164;8.210;2023-02-08T10:26:47;0.30;99.90
9033;DHT22;4551;53.164;8.210;2023-02-08T10:29:25;0.40;99.90
9033;DHT22;4551;53.164;8.210;2023-02-08T10:32:05;0.50;99.90
9033;DHT22;4551;53.164;8.210;2023-02-08T10:34:39;0.50;99.90
9033;DHT22;4551;53.164;8.210;2023-02-08T10:37:11;0.60;99.90
9033;DHT22;4551;53.164;8.210;2023-02-08T10:39:41;0.70;99.90
9033;DHT22;4551;53.164;8.210;2023-02-08T10:42:11;0.70;99.90
9033;DHT22;4551;53.164;8.210;2023-02-08T10:44:42;0.70;99.90
9033;DHT22;4551;53.164;8.210;2023-02-08T10:47:16;0.80;99.90
9033;DHT22;4551;53.164;8.210;2023-02-08T10:49:49;0.90;99.90
9033;DHT22;4551;53.164;8.210;2023-02-08T10:52:20;1.00;99.90
9033;DHT22;4551;53.164;8.210;2023-02-08T10:54:48;1.10;99.90
9033;DHT22;4551;53.164;8.210;2023-02-08T10:57:17;1.20;99.90
9033;DHT22;4551;53.164;8.210;2023-02-08T10:59:46;1.30;99.90
9033;DHT22;4551;53.164;8.210;2023-02-08T11:02:19;1.40;99.90
9033;DHT22;4551;53.164;8.210;2023-02-08T11:07:35;1.50;99.90
9033;DHT22;4551;53.164;8.210;2023-02-08T11:10:12;1.60;99.90
9033;DHT22;4551;53.164;8.210;2023-02-08T11:12:41;1.70;99.90
9033;DHT22;4551;53.164;8.210;2023-02-08T11:15:20;1.80;99.90
9033;DHT22;4551;53.164;8.210;2023-02-08T11:17:52;1.90;99.90
9033;DHT22;4551;53.164;8.210;2023-02-08T11:20:21;2.00;99.90
9033;DHT22;4551;53.164;8.210;2023-02-08T11:22:52;2.20;99.90
9033;DHT22;4551;53.164;8.210;2023-02-08T11:25:32;2.30;99.90
9033;DHT22;4551;53.164;8.210;2023-02-08T11:28:23;2.40;99.90
9033;DHT22;4551;53.164;8.210;2023-02-08T11:30:55;2.60;99.90
9033;DHT22;4551;53.164;8.210;2023-02-08T11:33:24;2.70;99.90
9033;DHT22;4551;53.164;8.210;2023-02-08T11:35:54;2.80;99.90
9033;DHT22;4551;53.164;8.210;2023-02-08T11:38:24;2.90;99.90
9033;DHT22;4551;53.164;8.210;2023-02-08T11:40:54;3.10;99.90
9033;DHT22;4551;53.164;8.210;2023-02-08T11:43:24;3.20;99.90
9033;DHT22;4551;53.164;8.210;2023-02-08T11:45:53;3.40;99.90
9033;DHT22;4551;53.164;8.210;2023-02-08T11:48:23;3.40;99.90
9033;DHT22;4551;53.164;8.210;2023-02-08T11:50:53;3.60;99.90
9033;DHT22;4551;53.164;8.210;2023-02-08T11:53:24;3.70;99.90
9033;DHT22;4551;53.164;8.210;2023-02-08T11:56:01;3.80;99.90
9033;DHT22;4551;53.164;8.210;2023-02-08T11:58:30;3.90;99.90
9033;DHT22;4551;53.164;8.210;2023-02-08T12:00:59;4.00;99.90
9033;DHT22;4551;53.164;8.210;2023-02-08T12:03:28;4.20;99.90
9033;DHT22;4551;53.164;8.210;2023-02-08T12:06:02;4.40;99.90
9033;DHT22;4551;53.164;8.210;2023-02-08T12:08:35;4.50;99.90
9033;DHT22;4551;53.164;8.210;2023-02-08T12:11:07;4.60;99.90
9033;DHT22;4551;53.164;8.210;2023-02-08T12:13:45;4.80;99.90
9033;DHT22;4551;53.164;8.210;2023-02-08T12:16:21;4.90;99.90
9033;DHT22;4551;53.164;8.210;2023-02-08T12:18:55;5.10;99.90
9033;DHT22;4551;53.164;8.210;2023-02-08T12:21:27;5.40;99.90
9033;DHT22;4551;53.164;8.210;2023-02-08T12:24:03;5.50;99.90
9033;DHT22;4551;53.164;8.210;2023-02-08T12:26:41;5.80;99.90
9033;DHT22;4551;53.164;8.210;2023-02-08T12:29:21;5.90;99.90
9033;DHT22;4551;53.164;8.210;2023-02-08T12:32:05;6.20;99.90
9033;DHT22;4551;53.164;8.210;2023-02-08T12:34:40;6.40;99.90
9033;DHT22;4551;53.164;8.210;2023-02-08T12:37:13;6.80;99.90
9033;DHT22;4551;53.164;8.210;2023-02-08T12:40:06;7.10;99.90
9033;DHT22;4551;53.164;8.210;2023-02-08T12:42:56;7.30;99.90
9033;DHT22;4551;53.164;8.210;2023-02-08T12:48:30;8.10;99.90
9033;DHT22;4551;53.164;8.210;2023-02-08T12:51:03;8.50;99.90
9033;DHT22;4551;53.164;8.210;2023-02-08T12:53:34;9.00;99.90
9033;DHT22;4551;53.164;8.210;2023-02-08T12:56:07;9.40;99.90
9033;DHT22;4551;53.164;8.210;2023-02-08T12:58:38;9.80;99.90
9033;DHT22;4551;53.164;8.210;2023-02-08T13:01:10;10.30;99.90
9033;DHT22;4551;53.164;8.210;2023-02-08T13:03:41;10.60;99.90
9033;DHT22;4551;53.164;8.210;2023-02-08T13:06:12;11.00;99.90
9033;DHT22;4551;53.164;8.210;2023-02-08T13:08:44;11.50;99.90
9033;DHT22;4551;53.164;8.210;2023-02-08T13:11:16;11.90;99.90
9033;DHT22;4551;53.164;8.210;2023-02-08T13:13:54;12.00;99.90
9033;DHT22;4551;53.164;8.210;2023-02-08T13:16:24;12.20;99.90
9033;DHT22;4551;53.164;8.210;2023-02-08T13:18:54;12.60;99.90
9033;DHT22;4551;53.164;8.210;2023-02-08T13:21:23;12.90;99.90
9033;DHT22;4551;53.164;8.210;2023-02-08T13:23:51;13.10;99.90
9033;DHT22;4551;53.164;8.210;2023-02-08T13:26:21;13.20;99.90
9033;DHT22;4551;53.164;8.210;2023-02-08T13:28:53;13.40;99.70
9033;DHT22;4551;53.164;8.210;2023-02-08T13:31:22;13.40;99.90
9033;DHT22;4551;53.164;8.210;2023-02-08T13:33:52;13.60;97.70
9033;DHT22;4551;53.164;8.210;2023-02-08T13:36:28;13.60;97.20
9033;DHT22;4551;53.164;8.210;2023-02-08T13:38:57;13.60;96.30
9033;DHT22;4551;53.164;8.210;2023-02-08T13:41:27;13.60;97.20
9033;DHT22;4551;53.164;8.210;2023-02-08T13:43:56;13.80;97.20
9033;DHT22;4551;53.164;8.210;2023-02-08T13:46:25;13.70;96.20
9033;DHT22;4551;53.164;8.210;2023-02-08T13:48:55;13.80;96.70
9033;DHT22;4551;53.164;8.210;2023-02-08T13:54:11;13.90;96.00
9033;DHT22;4551;53.164;8.210;2023-02-08T13:56:41;14.00;95.90
9033;DHT22;4551;53.164;8.210;2023-02-08T14:02:22;14.00;94.80
9033;DHT22;4551;53.164;8.210;2023-02-08T14:04:53;14.10;95.00
9033;DHT22;4551;53.164;8.210;2023-02-08T14:07:27;14.00;94.10
9033;DHT22;4551;53.164;8.210;2023-02-08T14:10:03;14.00;94.60
9033;DHT22;4551;53.164;8.210;2023-02-08T14:12:35;14.00;94.00
9033;DHT22;4551;53.164;8.210;2023-02-08T14:15:24;14.10;94.20
9033;DHT22;4551;53.164;8.210;2023-02-08T14:17:53;14.30;94.60
9033;DHT22;4551;53.164;8.210;2023-02-08T14:20:25;14.40;94.20
9033;DHT22;4551;53.164;8.210;2023-02-08T14:22:55;14.40;93.30
9033;DHT22;4551;53.164;8.210;2023-02-08T14:25:24;14.10;93.40
9033;DHT22;4551;53.164;8.210;2023-02-08T14:27:54;14.00;94.30
9033;DHT22;4551;53.164;8.210;2023-02-08T14:30:24;14.20;94.30
9033;DHT22;4551;53.164;8.210;2023-02-08T14:33:07;14.30;93.90
9033;DHT22;4551;53.164;8.210;2023-02-08T14:35:38;14.20;93.70
9033;DHT22;4551;53.164;8.210;2023-02-08T14:40:55;14.30;92.30
9033;DHT22;4551;53.164;8.210;2023-02-08T14:43:29;14.20;93.10
9033;DHT22;4551;53.164;8.210;2023-02-08T14:46:40;14.20;93.30
9033;DHT22;4551;53.164;8.210;2023-02-08T14:48:47;14.10;92.00
9033;DHT22;4551;53.164;8.210;2023-02-08T14:51:16;14.20;93.00
9033;DHT22;4551;53.164;8.210;2023-02-08T14:53:46;14.20;93.10
9033;DHT22;4551;53.164;8.210;2023-02-08T14:56:17;14.10;92.40
9033;DHT22;4551;53.164;8.210;2023-02-08T14:58:47;14.00;92.20
9033;DHT22;4551;53.164;8.210;2023-02-08T15:01:16;14.00;92.90
9033;DHT22;4551;53.164;8.210;2023-02-08T15:03:45;14.00;92.70
9033;DHT22;4551;53.164;8.210;2023-02-08T15:06:34;13.90;91.40
9033;DHT22;4551;53.164;8.210;2023-02-08T15:09:11;13.90;92.40
9033;DHT22;4551;53.164;8.210;2023-02-08T15:11:40;13.80;92.70
9033;DHT22;4551;53.164;8.210;2023-02-08T15:14:15;13.80;92.60
9033;DHT22;4551;53.164;8.210;2023-02-08T15:16:45;13.50;92.80
9033;DHT22;4551;53.164;8.210;2023-02-08T15:19:17;13.50;92.70
9033;DHT22;4551;53.164;8.210;2023-02-08T15:21:47;13.30;92.50
9033;DHT22;4551;53.164;8.210;2023-02-08T15:24:16;13.30;92.00
9033;DHT22;4551;53.164;8.210;2023-02-08T15:26:44;13.20;91.90
9033;DHT22;4551;53.164;8.210;2023-02-08T15:29:20;13.30;92.90
9033;DHT22;4551;53.164;8.210;2023-02-08T15:32:01;13.20;92.80
9033;DHT22;4551;53.164;8.210;2023-02-08T15:34:29;13.20;93.30
9033;DHT22;4551;53.164;8.210;2023-02-08T15:36:58;13.00;92.80
9033;DHT22;4551;53.164;8.210;2023-02-08T15:39:31;12.80;92.90
9033;DHT22;4551;53.164;8.210;2023-02-08T15:41:59;12.50;92.50
9033;DHT22;4551;53.164;8.210;2023-02-08T15:44:30;12.30;92.60
9033;DHT22;4551;53.164;8.210;2023-02-08T15:46:59;12.10;92.70
9033;DHT22;4551;53.164;8.210;2023-02-08T15:49:29;11.90;92.80
9033;DHT22;4551;53.164;8.210;2023-02-08T15:51:57;11.60;92.80
9033;DHT22;4551;53.164;8.210;2023-02-08T15:54:26;11.40;93.10
9033;DHT22;4551;53.164;8.210;2023-02-08T15:56:55;11.20;92.90
9033;DHT22;4551;53.164;8.210;2023-02-08T15:59:25;10.90;92.50
9033;DHT22;4551;53.164;8.210;2023-02-08T16:01:55;10.70;92.60
9033;DHT22;4551;53.164;8.210;2023-02-08T16:04:24;10.30;92.30
9033;DHT22;4551;53.164;8.210;2023-02-08T16:06:53;10.30;92.00
9033;DHT22;4551;53.164;8.210;2023-02-08T16:09:23;10.00;92.30
9033;DHT22;4551;53.164;8.210;2023-02-08T16:11:53;9.80;93.30
9033;DHT22;4551;53.164;8.210;2023-02-08T16:14:23;9.60;93.00
9033;DHT22;4551;53.164;8.210;2023-02-08T16:16:57;9.50;93.50
9033;DHT22;4551;53.164;8.210;2023-02-08T16:19:26;9.30;93.70
9033;DHT22;4551;53.164;8.210;2023-02-08T16:21:54;9.10;93.60
9033;DHT22;4551;53.164;8.210;2023-02-08T16:24:24;8.90;93.40
9033;DHT22;4551;53.164;8.210;2023-02-08T16:26:56;8.70;94.00
9033;DHT22;4551;53.164;8.210;2023-02-08T16:29:25;8.60;94.10
9033;DHT22;4551;53.164;8.210;2023-02-08T16:31:55;8.50;94.60
9033;DHT22;4551;53.164;8.210;2023-02-08T16:34:28;8.30;94.60
9033;DHT22;4551;53.164;8.210;2023-02-08T16:36:56;8.10;95.00
9033;DHT22;4551;53.164;8.210;2023-02-08T16:39:35;8.00;94.90
9033;DHT22;4551;53.164;8.210;2023-02-08T16:42:05;7.80;95.10